sensor_id;sensor_type;location;lat;lon;timestamp;P1;P2;P0
56495;PMS5003;42804;55.762;38.084;2023-04-27T00:02:14;101.20;83.40;52.80
56495;PMS5003;42804;55.762;38.084;2023-04-27T00:04:43;92.20;68.00;44.60
56495;PMS5003;42804;55.762;38.084;2023-04-27T00:07:11;85.00;62.60;42.00
56495;PMS5003;42804;55.762;38.084;2023-04-27T00:09:39;76.00;59.40;37.00
56495;PMS5003;42804;55.762;38.084;2023-04-27T00:12:07;71.00;54.80;34.00
56495;PMS5003;42804;55.762;38.084;2023-04-27T00:14:36;70.40;57.80;37.40
56495;PMS5003;42804;55.762;38.084;2023-04-27T00:17:04;65.00;51.80;31.00
56495;PMS5003;42804;55.762;38.084;2023-04-27T00:19:34;73.80;58.20;37.00
56495;PMS5003;42804;55.762;38.084;2023-04-27T00:22:02;65.40;51.40;32.60
56495;PMS5003;42804;55.762;38.084;2023-04-27T00:24:30;70.40;55.00;35.80
56495;PMS5003;42804;55.762;38.084;2023-04-27T00:26:58;69.80;55.80;38.00
56495;PMS5003;42804;55.762;38.084;2023-04-27T00:29:27;75.40;58.20;36.40
56495;PMS5003;42804;55.762;38.084;2023-04-27T00:31:55;63.60;51.20;34.00
56495;PMS5003;42804;55.762;38.084;2023-04-27T00:34:23;66.80;54.60;36.00
56495;PMS5003;42804;55.762;38.084;2023-04-27T00:36:53;65.20;52.80;35.00
56495;PMS5003;42804;55.762;38.084;2023-04-27T00:39:21;69.20;53.40;35.40
56495;PMS5003;42804;55.762;38.084;2023-04-27T00:41:50;61.20;52.00;34.20
56495;PMS5003;42804;55.762;38.084;2023-04-27T00:44:22;53.00;43.20;29.00
56495;PMS5003;42804;55.762;38.084;2023-04-27T00:46:51;61.80;49.80;33.00
56495;PMS5003;42804;55.762;38.084;2023-04-27T00:49:20;59.60;46.00;29.40
56495;PMS5003;42804;55.762;38.084;2023-04-27T00:51:48;67.60;55.00;35.60
56495;PMS5003;42804;55.762;38.084;2023-04-27T00:54:18;58.40;50.00;34.00
56495;PMS5003;42804;55.762;38.084;2023-04-27T00:56:47;59.20;49.80;32.80
56495;PMS5003;42804;55.762;38.084;2023-04-27T00:59:15;54.60;46.20;31.20
56495;PMS5003;42804;55.762;38.084;2023-04-27T01:01:44;65.00;52.80;34.80
56495;PMS5003;42804;55.762;38.084;2023-04-27T01:04:13;56.80;49.20;34.00
56495;PMS5003;42804;55.762;38.084;2023-04-27T01:06:42;63.00;53.20;33.80
56495;PMS5003;42804;55.762;38.084;2023-04-27T01:09:11;65.00;52.20;35.20
56495;PMS5003;42804;55.762;38.084;2023-04-27T01:11:41;64.60;52.00;36.80
56495;PMS5003;42804;55.762;38.084;2023-04-27T01:14:09;62.40;52.20;35.80
56495;PMS5003;42804;55.762;38.084;2023-04-27T01:16:37;61.40;51.40;34.20
56495;PMS5003;42804;55.762;38.084;2023-04-27T01:19:08;61.20;50.00;34.00
56495;PMS5003;42804;55.762;38.084;2023-04-27T01:21:36;48.60;43.40;30.20
56495;PMS5003;42804;55.762;38.084;2023-04-27T01:24:07;65.80;51.40;33.80
56495;PMS5003;42804;55.762;38.084;2023-04-27T01:26:36;50.60;43.00;27.60
56495;PMS5003;42804;55.762;38.084;2023-04-27T01:29:05;60.00;49.80;34.40
56495;PMS5003;42804;55.762;38.084;2023-04-27T01:31:33;58.40;48.40;33.40
56495;PMS5003;42804;55.762;38.084;2023-04-27T01:34:02;61.40;48.00;31.00
56495;PMS5003;42804;55.762;38.084;2023-04-27T01:36:30;64.80;51.20;35.20
56495;PMS5003;42804;55.762;38.084;2023-04-27T01:38:58;54.00;45.20;29.80
56495;PMS5003;42804;55.762;38.084;2023-04-27T01:41:28;59.80;50.60;33.80
56495;PMS5003;42804;55.762;38.084;2023-04-27T01:43:57;57.80;47.00;31.20
56495;PMS5003;42804;55.762;38.084;2023-04-27T01:46:27;57.40;44.20;29.00
56495;PMS5003;42804;55.762;38.084;2023-04-27T01:48:55;49.80;42.80;27.20
56495;PMS5003;42804;55.762;38.084;2023-04-27T01:51:24;58.40;49.80;32.60
56495;PMS5003;42804;55.762;38.084;2023-04-27T01:53:53;55.00;46.40;31.80
56495;PMS5003;42804;55.762;38.084;2023-04-27T01:56:21;63.20;49.80;31.60
56495;PMS5003;42804;55.762;38.084;2023-04-27T01:58:52;65.40;50.20;32.00
56495;PMS5003;42804;55.762;38.084;2023-04-27T02:01:21;57.00;46.20;31.40
56495;PMS5003;42804;55.762;38.084;2023-04-27T02:03:49;56.60;47.00;30.60
56495;PMS5003;42804;55.762;38.084;2023-04-27T02:06:17;64.40;54.00;34.80
56495;PMS5003;42804;55.762;38.084;2023-04-27T02:08:46;62.20;49.60;30.40
56495;PMS5003;42804;55.762;38.084;2023-04-27T02:11:14;74.00;57.80;36.20
56495;PMS5003;42804;55.762;38.084;2023-04-27T02:13:42;50.00;43.80;29.20
56495;PMS5003;42804;55.762;38.084;2023-04-27T02:16:13;63.00;52.00;32.20
56495;PMS5003;42804;55.762;38.084;2023-04-27T02:18:41;55.60;47.40;30.00
56495;PMS5003;42804;55.762;38.084;2023-04-27T02:21:10;58.60;47.20;31.00
56495;PMS5003;42804;55.762;38.084;2023-04-27T02:23:38;52.60;45.20;29.60
56495;PMS5003;42804;55.762;38.084;2023-04-27T02:26:06;49.40;43.40;27.40
56495;PMS5003;42804;55.762;38.084;2023-04-27T02:28:36;52.60;45.40;30.00
56495;PMS5003;42804;55.762;38.084;2023-04-27T02:31:04;56.80;47.60;33.60
56495;PMS5003;42804;55.762;38.084;2023-04-27T02:33:34;48.20;42.20;28.60
56495;PMS5003;42804;55.762;38.084;2023-04-27T02:36:02;53.60;45.40;29.80
56495;PMS5003;42804;55.762;38.084;2023-04-27T02:38:31;52.00;43.40;28.60
56495;PMS5003;42804;55.762;38.084;2023-04-27T02:40:59;41.60;39.40;27.60
56495;PMS5003;42804;55.762;38.084;2023-04-27T02:43:27;49.20;42.00;28.80
56495;PMS5003;42804;55.762;38.084;2023-04-27T02:45:56;47.80;42.00;28.40
56495;PMS5003;42804;55.762;38.084;2023-04-27T02:48:27;43.60;39.00;27.00
56495;PMS5003;42804;55.762;38.084;2023-04-27T02:50:56;46.60;40.20;27.00
56495;PMS5003;42804;55.762;38.084;2023-04-27T02:53:24;44.60;39.40;27.00
56495;PMS5003;42804;55.762;38.084;2023-04-27T02:55:53;46.40;41.60;28.20
56495;PMS5003;42804;55.762;38.084;2023-04-27T02:58:21;50.20;43.20;27.40
56495;PMS5003;42804;55.762;38.084;2023-04-27T03:00:52;52.40;43.20;28.20
56495;PMS5003;42804;55.762;38.084;2023-04-27T03:03:20;49.20;43.40;26.00
56495;PMS5003;42804;55.762;38.084;2023-04-27T03:05:49;51.80;43.00;29.00
56495;PMS5003;42804;55.762;38.084;2023-04-27T03:08:19;54.80;44.00;30.60
56495;PMS5003;42804;55.762;38.084;2023-04-27T03:10:47;55.40;45.00;29.00
56495;PMS5003;42804;55.762;38.084;2023-04-27T03:13:15;50.40;41.00;25.00
56495;PMS5003;42804;55.762;38.084;2023-04-27T03:15:43;42.40;38.60;24.20
56495;PMS5003;42804;55.762;38.084;2023-04-27T03:18:11;43.20;39.00;25.80
56495;PMS5003;42804;55.762;38.084;2023-04-27T03:20:40;43.80;39.80;27.00
56495;PMS5003;42804;55.762;38.084;2023-04-27T03:23:08;45.80;40.20;25.80
56495;PMS5003;42804;55.762;38.084;2023-04-27T03:25:39;46.80;40.20;27.20
56495;PMS5003;42804;55.762;38.084;2023-04-27T03:28:07;46.40;39.40;27.60
56495;PMS5003;42804;55.762;38.084;2023-04-27T03:30:37;54.60;46.40;29.80
56495;PMS5003;42804;55.762;38.084;2023-04-27T03:33:05;50.80;43.20;28.00
56495;PMS5003;42804;55.762;38.084;2023-04-27T03:35:34;52.00;43.00;28.00
56495;PMS5003;42804;55.762;38.084;2023-04-27T03:38:02;47.00;40.00;26.80
56495;PMS5003;42804;55.762;38.084;2023-04-27T03:40:30;51.20;42.80;28.60
56495;PMS5003;42804;55.762;38.084;2023-04-27T03:43:00;44.40;39.40;24.20
56495;PMS5003;42804;55.762;38.084;2023-04-27T03:45:29;50.80;42.80;28.20
56495;PMS5003;42804;55.762;38.084;2023-04-27T03:47:57;53.20;45.00;29.00
56495;PMS5003;42804;55.762;38.084;2023-04-27T03:50:26;52.00;43.40;29.00
56495;PMS5003;42804;55.762;38.084;2023-04-27T03:52:56;48.00;41.20;28.80
56495;PMS5003;42804;55.762;38.084;2023-04-27T03:55:24;51.60;42.80;28.20
56495;PMS5003;42804;55.762;38.084;2023-04-27T03:57:52;50.00;42.40;26.40
56495;PMS5003;42804;55.762;38.084;2023-04-27T04:00:22;46.60;40.00;26.40
56495;PMS5003;42804;55.762;38.084;2023-04-27T04:02:52;50.00;41.40;28.00
56495;PMS5003;42804;55.762;38.084;2023-04-27T04:05:21;52.20;44.00;27.60
56495;PMS5003;42804;55.762;38.084;2023-04-27T04:07:49;49.00;41.60;28.00
56495;PMS5003;42804;55.762;38.084;2023-04-27T04:10:18;43.20;38.00;27.00
56495;PMS5003;42804;55.762;38.084;2023-04-27T04:12:47;43.20;39.20;26.40
56495;PMS5003;42804;55.762;38.084;2023-04-27T04:15:16;48.00;41.00;27.60
56495;PMS5003;42804;55.762;38.084;2023-04-27T04:17:47;38.60;36.40;27.00
56495;PMS5003;42804;55.762;38.084;2023-04-27T04:20:17;47.80;41.40;27.80
56495;PMS5003;42804;55.762;38.084;2023-04-27T04:22:45;39.40;36.00;23.00
56495;PMS5003;42804;55.762;38.084;2023-04-27T04:25:13;50.00;40.00;27.00
56495;PMS5003;42804;55.762;38.084;2023-04-27T04:27:42;54.60;43.80;30.60
56495;PMS5003;42804;55.762;38.084;2023-04-27T04:30:10;54.80;46.20;31.40
56495;PMS5003;42804;55.762;38.084;2023-04-27T04:32:40;47.40;39.40;25.20
56495;PMS5003;42804;55.762;38.084;2023-04-27T04:35:10;46.40;39.80;27.00
56495;PMS5003;42804;55.762;38.084;2023-04-27T04:37:38;61.40;50.40;33.60
56495;PMS5003;42804;55.762;38.084;2023-04-27T04:40:07;51.20;44.20;28.20
56495;PMS5003;42804;55.762;38.084;2023-04-27T04:42:37;44.40;38.00;24.60
56495;PMS5003;42804;55.762;38.084;2023-04-27T04:45:07;46.60;42.00;27.00
56495;PMS5003;42804;55.762;38.084;2023-04-27T04:47:36;42.40;37.60;25.20
56495;PMS5003;42804;55.762;38.084;2023-04-27T04:50:06;40.20;35.00;24.80
56495;PMS5003;42804;55.762;38.084;2023-04-27T04:52:36;44.60;38.00;25.00
56495;PMS5003;42804;55.762;38.084;2023-04-27T04:55:05;38.50;33.00;20.00
56495;PMS5003;42804;55.762;38.084;2023-04-27T04:57:33;35.50;34.75;23.50
56495;PMS5003;42804;55.762;38.084;2023-04-27T05:00:02;32.25;29.50;20.75
56495;PMS5003;42804;55.762;38.084;2023-04-27T05:02:37;41.75;37.50;23.75
56495;PMS5003;42804;55.762;38.084;2023-04-27T05:05:06;35.00;33.75;21.50
56495;PMS5003;42804;55.762;38.084;2023-04-27T05:07:36;31.50;30.25;21.00
56495;PMS5003;42804;55.762;38.084;2023-04-27T05:10:04;35.75;30.75;21.25
56495;PMS5003;42804;55.762;38.084;2023-04-27T05:12:33;26.00;26.00;19.25
56495;PMS5003;42804;55.762;38.084;2023-04-27T05:15:01;28.75;28.00;18.00
56495;PMS5003;42804;55.762;38.084;2023-04-27T05:17:32;30.50;28.75;21.50
56495;PMS5003;42804;55.762;38.084;2023-04-27T05:20:00;30.75;29.00;20.50
56495;PMS5003;42804;55.762;38.084;2023-04-27T05:22:30;23.75;22.50;16.50
56495;PMS5003;42804;55.762;38.084;2023-04-27T05:25:00;22.75;20.75;16.50
56495;PMS5003;42804;55.762;38.084;2023-04-27T05:27:30;28.50;24.75;17.00
56495;PMS5003;42804;55.762;38.084;2023-04-27T05:29:58;23.50;21.00;15.00
56495;PMS5003;42804;55.762;38.084;2023-04-27T05:32:32;24.00;23.25;17.00
56495;PMS5003;42804;55.762;38.084;2023-04-27T05:35:02;22.00;19.25;12.00
56495;PMS5003;42804;55.762;38.084;2023-04-27T05:37:32;24.50;23.25;16.00
56495;PMS5003;42804;55.762;38.084;2023-04-27T05:40:02;18.50;18.25;12.00
56495;PMS5003;42804;55.762;38.084;2023-04-27T05:42:31;20.50;19.75;14.25
56495;PMS5003;42804;55.762;38.084;2023-04-27T05:45:00;21.75;20.50;15.00
56495;PMS5003;42804;55.762;38.084;2023-04-27T05:47:31;16.50;14.25;10.50
56495;PMS5003;42804;55.762;38.084;2023-04-27T05:50:00;16.25;15.25;10.50
56495;PMS5003;42804;55.762;38.084;2023-04-27T05:52:30;16.75;16.25;11.50
56495;PMS5003;42804;55.762;38.084;2023-04-27T05:54:58;19.00;19.00;14.00
56495;PMS5003;42804;55.762;38.084;2023-04-27T05:57:31;21.25;20.75;14.50
56495;PMS5003;42804;55.762;38.084;2023-04-27T06:00:00;15.50;14.00;10.25
56495;PMS5003;42804;55.762;38.084;2023-04-27T06:02:37;12.00;12.00;8.75
56495;PMS5003;42804;55.762;38.084;2023-04-27T06:05:06;16.00;14.25;11.00
56495;PMS5003;42804;55.762;38.084;2023-04-27T06:07:35;19.75;19.25;13.50
56495;PMS5003;42804;55.762;38.084;2023-04-27T06:10:04;17.50;15.75;12.00
56495;PMS5003;42804;55.762;38.084;2023-04-27T06:12:33;20.50;18.75;13.75
56495;PMS5003;42804;55.762;38.084;2023-04-27T06:15:02;25.00;24.00;18.00
56495;PMS5003;42804;55.762;38.084;2023-04-27T06:17:34;23.25;22.50;16.75
56495;PMS5003;42804;55.762;38.084;2023-04-27T06:20:04;21.75;20.75;15.00
56495;PMS5003;42804;55.762;38.084;2023-04-27T06:22:35;19.50;19.50;13.00
56495;PMS5003;42804;55.762;38.084;2023-04-27T06:25:04;13.50;13.00;9.75
56495;PMS5003;42804;55.762;38.084;2023-04-27T06:27:33;9.75;9.50;5.00
56495;PMS5003;42804;55.762;38.084;2023-04-27T06:30:02;11.75;11.75;7.25
56495;PMS5003;42804;55.762;38.084;2023-04-27T06:32:33;16.75;15.50;10.00
56495;PMS5003;42804;55.762;38.084;2023-04-27T06:35:01;11.00;11.00;8.25
56495;PMS5003;42804;55.762;38.084;2023-04-27T06:37:29;12.25;11.75;8.50
56495;PMS5003;42804;55.762;38.084;2023-04-27T06:39:58;11.25;11.00;8.50
56495;PMS5003;42804;55.762;38.084;2023-04-27T06:42:26;12.00;12.00;8.75
56495;PMS5003;42804;55.762;38.084;2023-04-27T06:44:56;14.00;13.50;8.00
56495;PMS5003;42804;55.762;38.084;2023-04-27T06:47:24;15.50;13.50;8.75
56495;PMS5003;42804;55.762;38.084;2023-04-27T06:49:53;15.00;14.50;11.00
56495;PMS5003;42804;55.762;38.084;2023-04-27T06:52:21;14.75;14.75;10.00
56495;PMS5003;42804;55.762;38.084;2023-04-27T06:54:49;19.00;18.25;10.75
56495;PMS5003;42804;55.762;38.084;2023-04-27T06:57:18;10.25;10.25;6.25
56495;PMS5003;42804;55.762;38.084;2023-04-27T06:59:46;10.25;10.25;6.75
56495;PMS5003;42804;55.762;38.084;2023-04-27T07:02:15;8.50;8.50;6.50
56495;PMS5003;42804;55.762;38.084;2023-04-27T07:04:44;11.00;11.00;7.00
56495;PMS5003;42804;55.762;38.084;2023-04-27T07:07:12;11.00;10.50;6.75
56495;PMS5003;42804;55.762;38.084;2023-04-27T07:09:40;12.75;11.50;6.75
56495;PMS5003;42804;55.762;38.084;2023-04-27T07:12:09;8.75;8.75;6.50
56495;PMS5003;42804;55.762;38.084;2023-04-27T07:14:37;9.50;8.75;5.75
56495;PMS5003;42804;55.762;38.084;2023-04-27T07:17:06;12.25;11.50;7.00
56495;PMS5003;42804;55.762;38.084;2023-04-27T07:19:36;13.67;13.00;9.67
56495;PMS5003;42804;55.762;38.084;2023-04-27T07:22:24;11.50;10.75;7.00
56495;PMS5003;42804;55.762;38.084;2023-04-27T07:24:53;13.00;12.00;7.00
56495;PMS5003;42804;55.762;38.084;2023-04-27T07:27:22;13.00;11.50;6.50
56495;PMS5003;42804;55.762;38.084;2023-04-27T07:29:50;14.25;11.50;8.75
56495;PMS5003;42804;55.762;38.084;2023-04-27T07:32:19;10.75;9.50;7.00
56495;PMS5003;42804;55.762;38.084;2023-04-27T07:34:49;9.25;8.25;5.25
56495;PMS5003;42804;55.762;38.084;2023-04-27T07:40:07;9.50;9.00;6.50
56495;PMS5003;42804;55.762;38.084;2023-04-27T07:45:30;8.00;8.00;5.50
56495;PMS5003;42804;55.762;38.084;2023-04-27T07:47:59;9.50;9.50;6.50
56495;PMS5003;42804;55.762;38.084;2023-04-27T07:50:29;8.00;7.75;6.00
56495;PMS5003;42804;55.762;38.084;2023-04-27T07:56:04;8.00;8.00;6.25
56495;PMS5003;42804;55.762;38.084;2023-04-27T07:58:32;8.00;7.50;5.25
56495;PMS5003;42804;55.762;38.084;2023-04-27T08:03:48;9.25;8.75;6.50
56495;PMS5003;42804;55.762;38.084;2023-04-27T08:06:18;8.00;7.75;5.00
56495;PMS5003;42804;55.762;38.084;2023-04-27T08:08:47;8.75;8.25;6.00
56495;PMS5003;42804;55.762;38.084;2023-04-27T08:14:02;11.25;11.25;7.50
56495;PMS5003;42804;55.762;38.084;2023-04-27T08:16:30;9.75;9.75;8.00
56495;PMS5003;42804;55.762;38.084;2023-04-27T08:18:59;10.75;10.00;7.75
56495;PMS5003;42804;55.762;38.084;2023-04-27T08:21:28;9.50;9.50;7.50
56495;PMS5003;42804;55.762;38.084;2023-04-27T08:23:57;10.00;10.00;8.00
56495;PMS5003;42804;55.762;38.084;2023-04-27T08:26:43;10.50;10.50;7.00
56495;PMS5003;42804;55.762;38.084;2023-04-27T08:29:12;10.50;10.25;7.00
56495;PMS5003;42804;55.762;38.084;2023-04-27T08:31:54;13.25;11.25;8.00
56495;PMS5003;42804;55.762;38.084;2023-04-27T08:34:22;12.75;11.50;8.00
56495;PMS5003;42804;55.762;38.084;2023-04-27T08:36:52;14.00;13.50;8.50
56495;PMS5003;42804;55.762;38.084;2023-04-27T08:39:20;11.25;11.25;8.25
56495;PMS5003;42804;55.762;38.084;2023-04-27T08:41:49;10.50;10.50;7.00
56495;PMS5003;42804;55.762;38.084;2023-04-27T08:44:17;11.75;11.75;8.50
56495;PMS5003;42804;55.762;38.084;2023-04-27T08:46:45;12.00;12.00;8.00
56495;PMS5003;42804;55.762;38.084;2023-04-27T08:49:14;10.75;10.00;6.25
56495;PMS5003;42804;55.762;38.084;2023-04-27T08:51:43;5.50;5.00;3.00
56495;PMS5003;42804;55.762;38.084;2023-04-27T08:54:13;10.25;10.00;7.00
56495;PMS5003;42804;55.762;38.084;2023-04-27T08:56:41;12.50;11.00;7.50
56495;PMS5003;42804;55.762;38.084;2023-04-27T08:59:12;9.75;9.50;6.75
56495;PMS5003;42804;55.762;38.084;2023-04-27T09:01:42;12.00;12.00;8.00
56495;PMS5003;42804;55.762;38.084;2023-04-27T09:04:11;11.25;11.00;8.00
56495;PMS5003;42804;55.762;38.084;2023-04-27T09:06:40;11.00;10.25;8.00
56495;PMS5003;42804;55.762;38.084;2023-04-27T09:09:08;14.25;12.75;8.50
56495;PMS5003;42804;55.762;38.084;2023-04-27T09:11:38;14.00;14.00;10.00
56495;PMS5003;42804;55.762;38.084;2023-04-27T09:14:14;13.50;11.50;9.00
56495;PMS5003;42804;55.762;38.084;2023-04-27T09:16:43;11.75;11.75;8.00
56495;PMS5003;42804;55.762;38.084;2023-04-27T09:19:22;13.50;13.50;9.00
56495;PMS5003;42804;55.762;38.084;2023-04-27T09:21:50;11.50;11.50;9.25
56495;PMS5003;42804;55.762;38.084;2023-04-27T09:24:18;12.00;11.00;8.75
56495;PMS5003;42804;55.762;38.084;2023-04-27T09:26:49;16.75;13.25;9.00
56495;PMS5003;42804;55.762;38.084;2023-04-27T09:29:17;14.25;13.00;10.50
56495;PMS5003;42804;55.762;38.084;2023-04-27T09:31:45;16.25;16.25;12.00
56495;PMS5003;42804;55.762;38.084;2023-04-27T09:34:14;13.25;12.00;8.50
56495;PMS5003;42804;55.762;38.084;2023-04-27T09:36:42;14.00;13.50;11.00
56495;PMS5003;42804;55.762;38.084;2023-04-27T09:39:11;12.25;11.75;9.25
56495;PMS5003;42804;55.762;38.084;2023-04-27T09:41:40;16.75;15.25;11.00
56495;PMS5003;42804;55.762;38.084;2023-04-27T09:44:11;13.25;12.25;9.25
56495;PMS5003;42804;55.762;38.084;2023-04-27T09:46:40;13.50;13.00;9.50
56495;PMS5003;42804;55.762;38.084;2023-04-27T09:49:09;15.75;14.75;11.25
56495;PMS5003;42804;55.762;38.084;2023-04-27T09:51:38;14.50;14.50;11.50
56495;PMS5003;42804;55.762;38.084;2023-04-27T09:54:07;14.25;14.00;11.00
56495;PMS5003;42804;55.762;38.084;2023-04-27T09:56:39;13.00;13.00;9.50
56495;PMS5003;42804;55.762;38.084;2023-04-27T09:59:14;15.75;15.75;11.25
56495;PMS5003;42804;55.762;38.084;2023-04-27T10:01:45;18.25;17.25;12.25
56495;PMS5003;42804;55.762;38.084;2023-04-27T10:04:24;27.50;25.50;18.25
56495;PMS5003;42804;55.762;38.084;2023-04-27T10:06:58;16.75;16.25;12.00
56495;PMS5003;42804;55.762;38.084;2023-04-27T10:09:27;17.25;17.00;12.00
56495;PMS5003;42804;55.762;38.084;2023-04-27T10:12:12;18.25;18.25;13.75
56495;PMS5003;42804;55.762;38.084;2023-04-27T10:14:49;16.25;15.25;12.25
56495;PMS5003;42804;55.762;38.084;2023-04-27T10:17:18;17.00;16.25;12.00
56495;PMS5003;42804;55.762;38.084;2023-04-27T10:19:58;17.75;17.00;13.00
56495;PMS5003;42804;55.762;38.084;2023-04-27T10:22:36;17.75;17.00;13.25
56495;PMS5003;42804;55.762;38.084;2023-04-27T10:25:12;18.50;18.00;13.25
56495;PMS5003;42804;55.762;38.084;2023-04-27T10:27:40;20.25;17.75;13.25
56495;PMS5003;42804;55.762;38.084;2023-04-27T10:30:10;15.00;15.00;11.25
56495;PMS5003;42804;55.762;38.084;2023-04-27T10:32:48;18.75;18.75;15.00
56495;PMS5003;42804;55.762;38.084;2023-04-27T10:35:17;15.00;14.75;11.50
56495;PMS5003;42804;55.762;38.084;2023-04-27T10:37:47;18.75;18.25;13.75
56495;PMS5003;42804;55.762;38.084;2023-04-27T10:40:17;13.25;13.25;10.25
56495;PMS5003;42804;55.762;38.084;2023-04-27T10:42:46;16.50;16.00;13.00
56495;PMS5003;42804;55.762;38.084;2023-04-27T10:45:26;18.75;18.25;14.50
56495;PMS5003;42804;55.762;38.084;2023-04-27T10:47:59;14.00;13.00;10.50
56495;PMS5003;42804;55.762;38.084;2023-04-27T10:50:28;15.25;15.25;11.75
56495;PMS5003;42804;55.762;38.084;2023-04-27T10:53:01;15.50;15.50;13.00
56495;PMS5003;42804;55.762;38.084;2023-04-27T10:55:30;15.50;15.50;12.00
56495;PMS5003;42804;55.762;38.084;2023-04-27T10:57:59;17.75;15.50;12.25
56495;PMS5003;42804;55.762;38.084;2023-04-27T11:00:30;18.75;18.75;13.50
56495;PMS5003;42804;55.762;38.084;2023-04-27T11:03:10;17.50;17.50;13.00
56495;PMS5003;42804;55.762;38.084;2023-04-27T11:05:38;18.50;17.50;12.00
56495;PMS5003;42804;55.762;38.084;2023-04-27T11:08:27;14.00;13.25;10.25
56495;PMS5003;42804;55.762;38.084;2023-04-27T11:10:56;17.00;16.25;13.00
56495;PMS5003;42804;55.762;38.084;2023-04-27T11:13:24;15.50;15.25;12.50
56495;PMS5003;42804;55.762;38.084;2023-04-27T11:15:56;16.75;15.75;12.50
56495;PMS5003;42804;55.762;38.084;2023-04-27T11:18:25;16.25;16.25;13.00
56495;PMS5003;42804;55.762;38.084;2023-04-27T11:21:05;16.75;16.75;13.00
56495;PMS5003;42804;55.762;38.084;2023-04-27T11:23:34;17.25;16.75;12.25
56495;PMS5003;42804;55.762;38.084;2023-04-27T11:26:08;15.00;14.50;11.25
56495;PMS5003;42804;55.762;38.084;2023-04-27T11:31:24;12.75;12.75;10.00
56495;PMS5003;42804;55.762;38.084;2023-04-27T11:33:53;12.25;12.00;8.75
56495;PMS5003;42804;55.762;38.084;2023-04-27T11:36:22;16.75;12.00;9.25
56495;PMS5003;42804;55.762;38.084;2023-04-27T11:38:56;12.25;12.25;8.75
56495;PMS5003;42804;55.762;38.084;2023-04-27T11:41:31;13.75;11.50;8.25
56495;PMS5003;42804;55.762;38.084;2023-04-27T11:44:03;14.75;14.00;10.50
56495;PMS5003;42804;55.762;38.084;2023-04-27T11:46:35;16.25;15.50;10.50
56495;PMS5003;42804;55.762;38.084;2023-04-27T11:49:04;16.75;16.00;11.00
56495;PMS5003;42804;55.762;38.084;2023-04-27T11:51:34;14.50;14.00;10.00
56495;PMS5003;42804;55.762;38.084;2023-04-27T11:54:04;15.00;14.00;9.75
56495;PMS5003;42804;55.762;38.084;2023-04-27T11:56:33;12.00;11.50;8.00
56495;PMS5003;42804;55.762;38.084;2023-04-27T11:59:02;10.00;9.75;8.00
56495;PMS5003;42804;55.762;38.084;2023-04-27T12:01:49;12.00;10.75;8.00
56495;PMS5003;42804;55.762;38.084;2023-04-27T12:04:18;15.50;15.00;10.00
56495;PMS5003;42804;55.762;38.084;2023-04-27T12:06:47;17.50;15.75;9.00
56495;PMS5003;42804;55.762;38.084;2023-04-27T12:09:15;16.00;15.50;12.00
56495;PMS5003;42804;55.762;38.084;2023-04-27T12:11:44;13.75;11.75;9.00
56495;PMS5003;42804;55.762;38.084;2023-04-27T12:14:12;13.25;12.75;7.50
56495;PMS5003;42804;55.762;38.084;2023-04-27T12:16:41;9.50;9.00;7.00
56495;PMS5003;42804;55.762;38.084;2023-04-27T12:19:11;9.75;8.75;6.50
56495;PMS5003;42804;55.762;38.084;2023-04-27T12:21:39;11.75;11.00;7.25
56495;PMS5003;42804;55.762;38.084;2023-04-27T12:24:08;10.50;10.50;7.00
56495;PMS5003;42804;55.762;38.084;2023-04-27T12:26:37;13.25;12.25;8.00
56495;PMS5003;42804;55.762;38.084;2023-04-27T12:31:52;14.75;12.75;10.00
56495;PMS5003;42804;55.762;38.084;2023-04-27T12:34:22;14.00;12.50;9.25
56495;PMS5003;42804;55.762;38.084;2023-04-27T12:36:50;14.50;14.00;9.00
56495;PMS5003;42804;55.762;38.084;2023-04-27T12:39:19;14.00;14.00;9.75
56495;PMS5003;42804;55.762;38.084;2023-04-27T12:41:48;14.25;14.25;9.00
56495;PMS5003;42804;55.762;38.084;2023-04-27T12:44:17;13.25;12.50;10.50
56495;PMS5003;42804;55.762;38.084;2023-04-27T12:46:45;13.75;13.50;9.50
56495;PMS5003;42804;55.762;38.084;2023-04-27T12:49:14;17.25;16.50;10.50
56495;PMS5003;42804;55.762;38.084;2023-04-27T12:52:01;15.00;15.00;10.50
56495;PMS5003;42804;55.762;38.084;2023-04-27T12:54:30;14.00;13.25;10.00
56495;PMS5003;42804;55.762;38.084;2023-04-27T12:59:45;13.00;13.00;9.25
56495;PMS5003;42804;55.762;38.084;2023-04-27T13:02:13;14.50;14.25;10.75
56495;PMS5003;42804;55.762;38.084;2023-04-27T13:04:42;11.75;11.25;9.00
56495;PMS5003;42804;55.762;38.084;2023-04-27T13:07:12;6.25;5.75;4.00
56495;PMS5003;42804;55.762;38.084;2023-04-27T13:09:40;19.25;19.00;13.25
56495;PMS5003;42804;55.762;38.084;2023-04-27T13:12:09;12.00;10.50;6.25
56495;PMS5003;42804;55.762;38.084;2023-04-27T13:14:38;13.50;13.50;11.00
56495;PMS5003;42804;55.762;38.084;2023-04-27T13:17:07;13.25;12.50;9.25
56495;PMS5003;42804;55.762;38.084;2023-04-27T13:19:35;14.75;12.25;9.50
56495;PMS5003;42804;55.762;38.084;2023-04-27T13:22:03;12.25;10.50;8.25
56495;PMS5003;42804;55.762;38.084;2023-04-27T13:24:50;12.25;12.00;8.50
56495;PMS5003;42804;55.762;38.084;2023-04-27T13:27:18;14.75;14.75;10.50
56495;PMS5003;42804;55.762;38.084;2023-04-27T13:29:48;13.50;13.50;9.75
56495;PMS5003;42804;55.762;38.084;2023-04-27T13:32:16;14.75;13.00;11.00
56495;PMS5003;42804;55.762;38.084;2023-04-27T13:34:45;14.25;11.75;8.50
56495;PMS5003;42804;55.762;38.084;2023-04-27T13:37:13;12.50;12.25;8.75
56495;PMS5003;42804;55.762;38.084;2023-04-27T13:39:41;11.75;11.00;8.25
56495;PMS5003;42804;55.762;38.084;2023-04-27T13:42:31;11.25;10.25;8.00
56495;PMS5003;42804;55.762;38.084;2023-04-27T13:44:59;8.75;6.75;6.00
56495;PMS5003;42804;55.762;38.084;2023-04-27T13:47:29;12.75;10.75;7.00
56495;PMS5003;42804;55.762;38.084;2023-04-27T13:50:03;10.25;10.00;8.75
56495;PMS5003;42804;55.762;38.084;2023-04-27T13:52:33;10.50;10.50;8.75
56495;PMS5003;42804;55.762;38.084;2023-04-27T13:55:02;12.50;10.50;8.50
56495;PMS5003;42804;55.762;38.084;2023-04-27T13:57:32;11.25;11.25;8.00
56495;PMS5003;42804;55.762;38.084;2023-04-27T14:00:01;11.00;11.00;7.00
56495;PMS5003;42804;55.762;38.084;2023-04-27T14:02:48;13.25;11.75;8.50
56495;PMS5003;42804;55.762;38.084;2023-04-27T14:05:34;11.75;11.00;8.75
56495;PMS5003;42804;55.762;38.084;2023-04-27T14:08:02;13.25;13.00;9.25
56495;PMS5003;42804;55.762;38.084;2023-04-27T14:10:31;12.50;12.50;8.25
56495;PMS5003;42804;55.762;38.084;2023-04-27T14:13:01;11.00;10.50;7.50
56495;PMS5003;42804;55.762;38.084;2023-04-27T14:15:30;16.25;12.50;8.75
56495;PMS5003;42804;55.762;38.084;2023-04-27T14:18:03;11.75;11.75;8.75